KMGY/MGY METAR and TAF weather

Enter ICAO airport designator
Station Type Date Time Source
KMGY METAR 2019/04/25 10:08 UTC NOAA

KMGY 251008Z AUTO 14003KT 7SM -RA SCT006 BKN080 OVC100 13/11 A2983 RMK AO2 P0000 T01280111


Station Type Date Time Source
KMGY Decoded METAR 2019/04/25 10:08 UTC NOAA

DAYTON WRIGHT BROTHERS AIRPORT , OH, United States (KMGY) 39-36N 84-14W 289M
Apr 25, 2019 - 06:08 AM EDT / 2019.04.25 1008 UTC
Wind: from the SE (140 degrees) at 3 MPH (3 KT):0
Visibility: 7 mile(s):0
Sky conditions: overcast
Weather: light rain
Precipitation last hour: A trace
Temperature: 55.0 F (12.8 C)
Dew Point: 52.0 F (11.1 C)
Relative Humidity: 89%
Pressure (altimeter): 29.83 in. Hg (1010 hPa)
ob: KMGY 251008Z AUTO 14003KT 7SM -RA SCT006 BKN080 OVC100 13/11 A2983 RMK AO2 P0000 T01280111
cycle: 10

Station Type Date Time Source
KMGY TAF UTC NOAA

Error!

Example: see airport list